Skip Navigation Links Skip Navigation Links

Current Weather

Pond Inlet, Nunavut

For information only: do not use for flight planning or navigation.
Latest weather
Observation time Monday, September 25, 2017 6:00 PM EDT
Local time Monday, September 25, 2017 6:30 PM EDT
Flight conditions Marginal Visual Meteorological Conditions
Winds
Wind speed calm
Visibility 40 mi.
Sky condition
Ceiling 2,800 ft. broken clouds
Cloud layer few clouds 2,400 ft.
Cloud layer broken clouds 2,800 ft.
Temperature 28°F
Dewpoint 21°F
Altimeter 29.83 in.Hg
Derived measurements
Relative humidity 74%
Wind chill 28°F
Density altitude -1859 ft.
Sea-level pressure 29.85 in.Hg
Remarks
Last observation of the day.
METAR CYIO 252200Z 00000KT 40SM FEW024 BKN028 M02/M06 A2983 RMK SC2SC5 -1.3/-3.6/0/10 MUCH LOOSE LAST STFD OBS/NXT 261500Z SLP109

Settings

Location code

InnerDrive.Weather 4.0.6144.1 Release CLR 4.0.30319.36366
Copyright ©2015 Inner Drive Technology. All rights reserved. Portions Copyright ©1986-2015 David Braverman.

Find weather

Site navigation


Skip Navigation Links

Place info

Page info

PayPal - The safer, easier way to pay online!

Return home.

Copyright ©2017 Inner Drive Technology. Purveyors of fine, hand-crafted computer software. Page printed 2017-09-25T22:30:23 UTC.